createdAt,value
2024-03-28T00:00:05.978Z,57.94
2024-03-28T00:01:05.989Z,58.75
2024-03-28T00:02:05.983Z,57.26
2024-03-28T00:03:05.979Z,55.30
2024-03-28T00:04:05.973Z,57.40
2024-03-28T00:05:05.974Z,58.13
2024-03-28T00:06:05.971Z,56.86
2024-03-28T00:07:05.978Z,56.46
2024-03-28T00:08:05.964Z,53.57
2024-03-28T00:09:05.963Z,57.72
2024-03-28T00:10:05.963Z,56.85
2024-03-28T00:11:05.959Z,57.85
2024-03-28T00:12:05.967Z,54.84
2024-03-28T00:13:05.950Z,54.44
2024-03-28T00:14:05.958Z,53.68
2024-03-28T00:15:05.947Z,51.72
2024-03-28T00:16:05.955Z,56.92
2024-03-28T00:17:05.952Z,54.84
2024-03-28T00:18:05.950Z,51.52
2024-03-28T00:19:08.218Z,51.85
2024-03-28T00:20:05.941Z,52.56
2024-03-28T00:21:05.969Z,54.06
2024-03-28T00:22:05.997Z,53.68
2024-03-28T00:23:06.029Z,51.35
2024-03-28T00:24:06.064Z,53.37
2024-03-28T00:25:06.102Z,52.44
2024-03-28T00:26:06.134Z,52.90
2024-03-28T00:27:06.174Z,52.27
2024-03-28T00:28:06.196Z,55.48
2024-03-28T00:29:06.249Z,56.16
2024-03-28T00:30:06.258Z,55.32
2024-03-28T00:31:06.289Z,54.67
2024-03-28T00:32:06.325Z,58.31
2024-03-28T00:33:06.347Z,60.74
2024-03-28T00:34:06.382Z,59.80
2024-03-28T00:35:06.414Z,60.00
2024-03-28T00:36:06.436Z,65.01
2024-03-28T00:37:06.473Z,60.98
2024-03-28T00:38:06.497Z,63.48
2024-03-28T00:39:06.537Z,64.62
2024-03-28T00:40:06.561Z,67.11
2024-03-28T00:41:06.605Z,66.67
2024-03-28T00:42:06.613Z,67.90
2024-03-28T00:43:06.646Z,67.89
2024-03-28T00:44:06.676Z,67.84
2024-03-28T00:45:06.718Z,70.38
2024-03-28T00:46:06.731Z,66.02
2024-03-28T00:47:06.743Z,64.17
2024-03-28T00:48:06.766Z,65.29
2024-03-28T00:49:06.799Z,63.32
2024-03-28T00:50:06.834Z,62.85
2024-03-28T00:51:06.945Z,65.13
2024-03-28T00:52:06.895Z,60.93
2024-03-28T00:53:06.908Z,60.57
2024-03-28T00:54:06.940Z,60.95
2024-03-28T00:55:06.972Z,61.55
2024-03-28T00:56:07.004Z,61.08
2024-03-28T00:57:07.039Z,64.30
2024-03-28T00:58:07.093Z,60.22
2024-03-28T00:59:07.079Z,63.14
2024-03-28T01:00:07.128Z,62.52
2024-03-28T01:01:07.148Z,62.68
2024-03-28T01:02:07.175Z,68.01
2024-03-28T01:03:07.202Z,64.14
2024-03-28T01:04:07.228Z,67.76
2024-03-28T01:05:07.260Z,66.09
2024-03-28T01:06:07.294Z,67.94
2024-03-28T01:07:07.331Z,67.68
2024-03-28T01:08:07.361Z,71.87
2024-03-28T01:09:07.387Z,73.06
2024-03-28T01:10:07.413Z,72.65
2024-03-28T01:11:07.450Z,71.39
2024-03-28T01:12:07.501Z,72.19
2024-03-28T01:13:07.515Z,74.23
2024-03-28T01:14:07.535Z,72.46
2024-03-28T01:15:07.575Z,75.55
2024-03-28T01:16:07.591Z,75.38
2024-03-28T01:17:07.650Z,75.77
2024-03-28T01:18:09.658Z,76.86
2024-03-28T01:19:07.913Z,77.94
2024-03-28T01:20:07.663Z,76.60
2024-03-28T01:21:07.667Z,77.20
2024-03-28T01:22:07.694Z,79.03
2024-03-28T01:23:07.672Z,81.17
2024-03-28T01:24:07.666Z,81.67
2024-03-28T01:25:07.655Z,80.98
2024-03-28T01:26:07.668Z,82.31
2024-03-28T01:27:07.652Z,82.54
2024-03-28T01:28:10.232Z,82.96
2024-03-28T01:29:07.630Z,82.97
2024-03-28T01:30:07.643Z,83.44
2024-03-28T01:31:07.624Z,83.86
2024-03-28T01:32:07.633Z,85.36
2024-03-28T01:33:07.617Z,85.33
2024-03-28T01:34:07.616Z,87.22
2024-03-28T01:35:07.594Z,86.01
2024-03-28T01:36:07.601Z,83.35
2024-03-28T01:37:10.215Z,83.59
2024-03-28T01:38:07.590Z,83.57
2024-03-28T01:39:07.590Z,83.79
2024-03-28T01:40:07.577Z,85.56
2024-03-28T01:41:07.571Z,86.52
2024-03-28T01:42:07.571Z,87.95
2024-03-28T01:43:07.562Z,86.90
2024-03-28T01:44:07.564Z,86.99
2024-03-28T01:45:07.563Z,87.66
2024-03-28T01:46:07.657Z,88.15
2024-03-28T01:47:25.824Z,88.76
2024-03-28T01:48:08.758Z,87.00
2024-03-28T01:49:07.571Z,87.11
2024-03-28T01:50:07.569Z,88.18
2024-03-28T01:51:07.572Z,88.64
2024-03-28T01:52:07.574Z,88.86
2024-03-28T01:53:07.576Z,89.33
2024-03-28T01:54:07.580Z,89.43
2024-03-28T01:55:07.571Z,89.60
2024-03-28T01:56:07.570Z,90.31
2024-03-28T01:57:07.611Z,89.33
2024-03-28T01:58:07.565Z,89.56
2024-03-28T01:59:07.571Z,88.28
2024-03-28T02:00:07.606Z,90.12
2024-03-28T02:01:07.562Z,91.75
2024-03-28T02:02:07.638Z,88.57
2024-03-28T02:03:07.575Z,91.42
2024-03-28T02:04:07.576Z,88.71
2024-03-28T02:05:07.584Z,88.47
2024-03-28T02:06:07.581Z,88.25
2024-03-28T02:07:07.591Z,93.38
2024-03-28T02:08:07.780Z,89.71
2024-03-28T02:09:07.644Z,89.03
2024-03-28T02:10:07.676Z,87.35
2024-03-28T02:11:07.693Z,88.00
2024-03-28T02:12:09.907Z,90.05
2024-03-28T02:13:07.713Z,87.87
2024-03-28T02:14:07.733Z,89.46
2024-03-28T02:15:07.721Z,91.58
2024-03-28T02:16:07.713Z,90.01
2024-03-28T02:17:07.711Z,87.51
2024-03-28T02:18:07.707Z,90.19
2024-03-28T02:19:07.713Z,89.03
2024-03-28T02:20:07.702Z,88.27
2024-03-28T02:21:07.689Z,89.15
2024-03-28T02:22:07.709Z,88.99
2024-03-28T02:23:07.680Z,88.07
2024-03-28T02:24:07.694Z,83.15
2024-03-28T02:25:07.677Z,83.36
2024-03-28T02:26:07.683Z,84.48
2024-03-28T02:27:07.685Z,82.89
2024-03-28T02:28:07.681Z,83.05
2024-03-28T02:29:07.698Z,82.56
2024-03-28T02:30:07.707Z,84.44
2024-03-28T02:31:07.670Z,81.85
2024-03-28T02:32:07.676Z,79.49
2024-03-28T02:33:07.664Z,84.24
2024-03-28T02:34:07.666Z,81.49
2024-03-28T02:35:07.674Z,82.62
2024-03-28T02:36:07.658Z,83.31
2024-03-28T02:37:07.667Z,80.81
2024-03-28T02:38:07.664Z,84.31
2024-03-28T02:39:07.660Z,83.14
2024-03-28T02:40:07.651Z,80.56
2024-03-28T02:41:07.684Z,81.54
2024-03-28T02:42:07.750Z,84.17
2024-03-28T02:43:07.679Z,79.96
2024-03-28T02:44:07.663Z,84.53
2024-03-28T02:45:07.666Z,82.22
2024-03-28T02:46:07.667Z,83.37
2024-03-28T02:47:07.678Z,85.42
2024-03-28T02:48:07.667Z,83.42
2024-03-28T02:49:07.662Z,82.92
2024-03-28T02:50:07.659Z,84.39
2024-03-28T02:51:07.652Z,79.91
2024-03-28T02:52:07.654Z,74.47
2024-03-28T02:53:07.653Z,72.70
2024-03-28T02:54:07.636Z,72.54
2024-03-28T02:55:07.630Z,74.26
2024-03-28T02:56:07.629Z,70.30
2024-03-28T02:57:07.643Z,69.26
2024-03-28T02:58:07.632Z,67.20
2024-03-28T02:59:07.635Z,65.44
2024-03-28T03:00:07.642Z,70.20
2024-03-28T03:01:07.635Z,66.30
2024-03-28T03:02:07.645Z,67.32
2024-03-28T03:03:07.628Z,67.11
2024-03-28T03:04:07.644Z,69.98
2024-03-28T03:05:07.624Z,67.09
2024-03-28T03:06:07.652Z,67.35
2024-03-28T03:07:07.644Z,67.66
2024-03-28T03:08:07.645Z,68.38
2024-03-28T03:09:07.629Z,68.40
2024-03-28T03:10:07.653Z,65.22
2024-03-28T03:11:07.651Z,65.65
2024-03-28T03:12:07.659Z,64.10
2024-03-28T03:13:07.654Z,64.32
2024-03-28T03:14:07.650Z,65.67
2024-03-28T03:15:07.656Z,62.68
2024-03-28T03:16:07.683Z,63.12
2024-03-28T03:17:07.659Z,58.69
2024-03-28T03:18:07.663Z,60.00
2024-03-28T03:19:07.665Z,57.90
2024-03-28T03:20:07.659Z,59.33
2024-03-28T03:21:07.661Z,62.35
2024-03-28T03:22:07.665Z,57.77
2024-03-28T03:23:07.661Z,55.78
2024-03-28T03:24:07.675Z,56.28
2024-03-28T03:25:07.685Z,58.53
2024-03-28T03:26:07.720Z,56.99
2024-03-28T03:27:07.756Z,55.00
2024-03-28T03:28:07.792Z,55.24
2024-03-28T03:29:07.847Z,59.61
2024-03-28T03:30:07.881Z,59.03
2024-03-28T03:31:07.912Z,60.08
2024-03-28T03:32:07.955Z,57.89
2024-03-28T03:33:07.987Z,62.68
2024-03-28T03:34:08.024Z,62.03
2024-03-28T03:35:08.070Z,61.81
2024-03-28T03:36:08.111Z,64.97
2024-03-28T03:37:08.147Z,63.68
2024-03-28T03:38:08.185Z,62.75
2024-03-28T03:39:08.280Z,65.79
2024-03-28T03:40:08.274Z,64.30
2024-03-28T03:41:08.290Z,65.81
2024-03-28T03:42:08.331Z,65.48
2024-03-28T03:43:08.356Z,66.66
2024-03-28T03:44:08.399Z,68.28
2024-03-28T03:45:08.439Z,67.06
2024-03-28T03:46:08.467Z,71.09
2024-03-28T03:47:08.508Z,71.22
2024-03-28T03:48:08.536Z,70.43
2024-03-28T03:49:08.578Z,69.84
2024-03-28T03:50:08.615Z,72.28
2024-03-28T03:51:08.644Z,74.16
2024-03-28T03:52:08.693Z,73.52
2024-03-28T03:53:08.752Z,73.58
2024-03-28T03:54:08.766Z,74.37
2024-03-28T03:55:08.782Z,74.50
2024-03-28T03:56:08.818Z,72.76
2024-03-28T03:57:08.859Z,71.61
2024-03-28T03:58:08.892Z,72.72
2024-03-28T03:59:08.911Z,72.47
2024-03-28T04:00:08.960Z,74.09
2024-03-28T04:01:08.971Z,77.07
2024-03-28T04:02:09.024Z,78.06
2024-03-28T04:03:09.050Z,75.89
2024-03-28T04:04:09.087Z,78.21
2024-03-28T04:05:09.116Z,78.39
2024-03-28T04:06:09.151Z,79.07
2024-03-28T04:07:09.181Z,77.37
2024-03-28T04:08:09.220Z,76.44
2024-03-28T04:09:09.244Z,75.42
2024-03-28T04:10:09.290Z,72.47
2024-03-28T04:11:09.311Z,74.01
2024-03-28T04:12:09.368Z,71.40
2024-03-28T04:13:09.397Z,73.58
2024-03-28T04:14:09.422Z,71.09
2024-03-28T04:15:09.459Z,70.77
2024-03-28T04:16:09.496Z,69.08
2024-03-28T04:17:09.534Z,68.23
2024-03-28T04:18:09.582Z,68.83
2024-03-28T04:19:09.605Z,67.83
2024-03-28T04:20:09.647Z,68.00
2024-03-28T04:21:09.683Z,67.61
2024-03-28T04:22:09.725Z,70.29
2024-03-28T04:23:09.755Z,70.81
2024-03-28T04:24:09.821Z,72.92
2024-03-28T04:25:09.838Z,70.08
2024-03-28T04:26:09.889Z,70.63
2024-03-28T04:27:09.916Z,73.22
2024-03-28T04:28:09.949Z,72.57
2024-03-28T04:29:17.196Z,50.00
2024-03-28T04:30:17.180Z,50.00
2024-03-28T04:31:24.566Z,50.00
2024-03-28T04:32:24.585Z,50.00
2024-03-28T04:33:24.550Z,50.00
2024-03-28T04:34:24.652Z,50.00
2024-03-28T04:35:24.589Z,50.00
2024-03-28T04:36:24.588Z,53.02
2024-03-28T04:37:24.603Z,50.32
2024-03-28T04:38:24.579Z,51.70
2024-03-28T04:39:24.594Z,51.83
2024-03-28T04:40:24.648Z,51.45
2024-03-28T04:41:24.592Z,52.21
2024-03-28T04:42:24.577Z,54.97
2024-03-28T04:43:24.600Z,53.04
2024-03-28T04:44:24.586Z,53.85
2024-03-28T04:45:24.582Z,53.58
2024-03-28T04:46:24.622Z,50.28
2024-03-28T04:47:24.598Z,52.96
2024-03-28T04:48:24.649Z,51.93
2024-03-28T04:49:24.621Z,50.61
2024-03-28T04:50:24.618Z,53.15
2024-03-28T04:51:24.625Z,52.98
2024-03-28T04:52:24.692Z,54.14
2024-03-28T04:53:24.631Z,53.39
2024-03-28T04:54:24.639Z,53.38
2024-03-28T04:55:27.719Z,56.09
2024-03-28T04:56:24.646Z,53.56
2024-03-28T04:57:24.654Z,56.47
2024-03-28T04:58:24.700Z,57.16
2024-03-28T04:59:24.657Z,55.31
2024-03-28T05:00:24.703Z,57.32
2024-03-28T05:01:24.713Z,56.42
2024-03-28T05:02:24.688Z,54.52
2024-03-28T05:03:24.686Z,56.17
2024-03-28T05:04:24.705Z,57.56
2024-03-28T05:05:24.710Z,59.73
2024-03-28T05:06:24.702Z,58.76
2024-03-28T05:07:24.795Z,57.16
2024-03-28T05:08:24.724Z,58.17
2024-03-28T05:09:24.728Z,57.07
2024-03-28T05:10:24.793Z,61.84
2024-03-28T05:11:25.852Z,58.88
2024-03-28T05:12:24.736Z,59.93
2024-03-28T05:13:24.757Z,59.13
2024-03-28T05:14:24.747Z,61.49
2024-03-28T05:15:24.746Z,59.72
2024-03-28T05:16:24.792Z,61.33
2024-03-28T05:17:24.784Z,60.72
2024-03-28T05:18:24.761Z,60.28
2024-03-28T05:19:24.792Z,61.12
2024-03-28T05:20:24.774Z,61.24
2024-03-28T05:21:24.771Z,61.27
2024-03-28T05:22:24.806Z,60.05
2024-03-28T05:23:24.770Z,63.12
2024-03-28T05:24:24.791Z,60.63
2024-03-28T05:25:24.844Z,60.80
2024-03-28T05:26:24.772Z,63.39
2024-03-28T05:27:27.479Z,62.44
2024-03-28T05:28:24.794Z,62.50
2024-03-28T05:29:24.817Z,62.52
2024-03-28T05:30:24.806Z,63.44
2024-03-28T05:31:24.829Z,63.02
2024-03-28T05:32:24.806Z,62.46
2024-03-28T05:33:24.814Z,62.67
2024-03-28T05:34:24.827Z,63.25
2024-03-28T05:35:24.792Z,63.06
2024-03-28T05:36:24.785Z,61.51
2024-03-28T05:37:24.818Z,63.60
2024-03-28T05:38:24.803Z,62.08
2024-03-28T05:39:24.802Z,60.56
2024-03-28T05:40:24.837Z,60.45
2024-03-28T05:41:24.788Z,57.84
2024-03-28T05:42:24.798Z,55.61
2024-03-28T05:43:24.822Z,57.04
2024-03-28T05:44:24.807Z,54.75
2024-03-28T05:45:24.801Z,56.73
2024-03-28T05:46:24.819Z,54.83
2024-03-28T05:47:24.832Z,54.51
2024-03-28T05:48:24.841Z,52.78
2024-03-28T05:49:24.885Z,52.87
2024-03-28T05:50:24.857Z,53.16
2024-03-28T05:51:24.839Z,52.79
2024-03-28T05:52:24.892Z,51.36
2024-03-28T05:53:24.847Z,54.33
2024-03-28T05:54:24.848Z,52.03
2024-03-28T05:55:24.851Z,51.09
2024-03-28T05:56:24.853Z,54.00
2024-03-28T05:57:24.858Z,52.98
2024-03-28T05:58:24.876Z,52.35
2024-03-28T05:59:24.850Z,53.05
2024-03-28T06:00:24.865Z,55.55
2024-03-28T06:01:24.886Z,57.27
2024-03-28T06:02:24.861Z,53.04
2024-03-28T06:03:27.403Z,52.33
2024-03-28T06:04:24.875Z,54.13
2024-03-28T06:05:24.862Z,55.41
2024-03-28T06:06:24.865Z,53.06
2024-03-28T06:07:24.869Z,53.71
2024-03-28T06:08:24.865Z,55.92
2024-03-28T06:09:24.858Z,55.11
2024-03-28T06:10:24.890Z,53.09
2024-03-28T06:11:24.859Z,52.29
2024-03-28T06:12:24.866Z,51.77
2024-03-28T06:13:24.878Z,51.75
2024-03-28T06:14:24.844Z,49.47
2024-03-28T06:15:24.848Z,50.00
2024-03-28T06:16:24.854Z,53.04
2024-03-28T06:17:24.832Z,53.44
2024-03-28T06:18:24.876Z,51.05
2024-03-28T06:19:24.820Z,51.40
2024-03-28T06:20:24.813Z,53.00
2024-03-28T06:21:24.817Z,52.67
2024-03-28T06:22:27.064Z,50.21
2024-03-28T06:23:24.803Z,52.25
2024-03-28T06:24:24.797Z,48.45
2024-03-28T06:25:24.827Z,49.90
2024-03-28T06:26:24.855Z,50.00
2024-03-28T06:27:24.898Z,52.70
2024-03-28T06:28:24.942Z,50.96
2024-03-28T06:29:24.956Z,51.93
2024-03-28T06:30:25.020Z,54.89
2024-03-28T06:31:25.096Z,50.00
2024-03-28T06:32:25.133Z,50.46
2024-03-28T06:33:25.117Z,51.41
2024-03-28T06:34:25.162Z,52.83
2024-03-28T06:35:25.179Z,50.00
2024-03-28T06:36:25.222Z,51.86
2024-03-28T06:37:25.213Z,51.92
2024-03-28T06:38:25.213Z,52.37
2024-03-28T06:39:25.210Z,50.97
2024-03-28T06:40:25.216Z,51.63
2024-03-28T06:41:25.205Z,50.86
2024-03-28T06:42:25.197Z,52.53
2024-03-28T06:43:25.202Z,56.13
2024-03-28T06:44:25.173Z,53.94
2024-03-28T06:45:25.165Z,53.39
2024-03-28T06:46:25.196Z,54.30
2024-03-28T06:47:25.163Z,51.04
2024-03-28T06:48:25.211Z,52.88
2024-03-28T06:49:25.159Z,52.50
2024-03-28T06:50:25.185Z,50.59
2024-03-28T06:51:25.243Z,52.51
2024-03-28T06:52:25.326Z,52.19
2024-03-28T06:53:25.302Z,51.79
2024-03-28T06:54:25.343Z,55.60
2024-03-28T06:55:25.405Z,52.42
2024-03-28T06:56:25.411Z,55.88
2024-03-28T06:57:25.454Z,56.10
2024-03-28T06:58:25.537Z,52.44
2024-03-28T06:59:25.522Z,54.75
2024-03-28T07:00:25.563Z,53.04
2024-03-28T07:01:25.673Z,53.56
2024-03-28T07:02:25.634Z,55.96
2024-03-28T07:03:25.674Z,52.14
2024-03-28T07:04:25.711Z,50.85
2024-03-28T07:05:25.736Z,52.17
2024-03-28T07:06:25.779Z,51.42
2024-03-28T07:07:25.838Z,51.86
2024-03-28T07:08:25.844Z,51.20
2024-03-28T07:09:25.884Z,54.01
2024-03-28T07:10:25.982Z,50.46
2024-03-28T07:11:25.969Z,51.23
2024-03-28T07:12:26.036Z,51.55
2024-03-28T07:13:26.073Z,50.00
2024-03-28T07:14:26.091Z,51.74
2024-03-28T07:15:26.130Z,50.00
2024-03-28T07:16:26.179Z,53.30
2024-03-28T07:17:26.292Z,53.32
2024-03-28T07:18:26.249Z,53.21
2024-03-28T07:19:26.392Z,55.94
2024-03-28T07:20:26.299Z,57.37
2024-03-28T07:21:26.346Z,57.38
2024-03-28T07:22:26.404Z,61.00
2024-03-28T07:23:26.403Z,59.51
2024-03-28T07:24:26.454Z,63.59
2024-03-28T07:25:26.504Z,62.34
2024-03-28T07:26:26.490Z,63.24
2024-03-28T07:27:26.529Z,63.77
2024-03-28T07:28:26.585Z,66.47
2024-03-28T07:29:26.593Z,65.41
2024-03-28T07:30:26.631Z,66.66
2024-03-28T07:31:26.694Z,68.88
2024-03-28T07:32:26.677Z,66.58
2024-03-28T07:33:26.703Z,69.94
2024-03-28T07:34:26.763Z,70.86
2024-03-28T07:35:28.944Z,72.20
2024-03-28T07:36:26.823Z,72.54
2024-03-28T07:37:26.901Z,74.44
2024-03-28T07:38:26.907Z,74.07
2024-03-28T07:39:26.949Z,76.26
2024-03-28T07:40:26.998Z,73.07
2024-03-28T07:41:27.024Z,75.12
2024-03-28T07:42:27.069Z,74.49
2024-03-28T07:43:27.129Z,75.53
2024-03-28T07:44:27.151Z,75.30
2024-03-28T07:45:27.193Z,76.39
2024-03-28T07:46:27.199Z,74.35
2024-03-28T07:47:27.292Z,72.15
2024-03-28T07:48:27.286Z,75.43
2024-03-28T07:49:27.324Z,74.62
2024-03-28T07:50:27.371Z,73.69
2024-03-28T07:51:27.381Z,70.44
2024-03-28T07:52:27.441Z,71.30
2024-03-28T07:53:27.459Z,72.69
2024-03-28T07:54:27.490Z,75.75
2024-03-28T07:55:27.545Z,73.82
2024-03-28T07:56:27.574Z,73.11
2024-03-28T07:57:27.601Z,74.31
2024-03-28T07:58:27.626Z,74.32
2024-03-28T07:59:27.591Z,73.61
2024-03-28T08:00:27.595Z,74.81
2024-03-28T08:01:27.583Z,74.70
2024-03-28T08:02:27.588Z,74.45
2024-03-28T08:03:27.564Z,75.08
2024-03-28T08:04:27.595Z,75.80
2024-03-28T08:05:27.555Z,76.23
2024-03-28T08:06:27.538Z,74.72
2024-03-28T08:07:27.552Z,76.87
2024-03-28T08:08:27.543Z,73.96
2024-03-28T08:09:27.567Z,72.31
2024-03-28T08:10:27.636Z,73.79
2024-03-28T08:11:27.646Z,72.91
2024-03-28T08:12:27.669Z,74.48
2024-03-28T08:13:27.735Z,75.54
2024-03-28T08:14:27.733Z,74.65
2024-03-28T08:15:27.791Z,77.11
2024-03-28T08:16:27.838Z,76.28
2024-03-28T08:17:27.897Z,75.58
2024-03-28T08:18:27.893Z,76.35
2024-03-28T08:19:27.964Z,77.19
2024-03-28T08:20:27.973Z,78.26
2024-03-28T08:21:28.000Z,74.92
2024-03-28T08:22:28.074Z,80.30
2024-03-28T08:23:28.072Z,76.97
2024-03-28T08:24:28.098Z,77.19
2024-03-28T08:25:28.166Z,76.69
2024-03-28T08:26:28.200Z,75.09
2024-03-28T08:27:28.212Z,74.12
2024-03-28T08:28:28.264Z,73.52
2024-03-28T08:29:28.266Z,70.74
2024-03-28T08:30:28.888Z,69.83
2024-03-28T08:31:28.372Z,71.09
2024-03-28T08:32:28.426Z,70.35
2024-03-28T08:33:28.427Z,68.79
2024-03-28T08:34:28.470Z,67.00
2024-03-28T08:35:28.511Z,66.65
2024-03-28T08:36:28.544Z,65.98
2024-03-28T08:37:28.599Z,64.60
2024-03-28T08:38:28.627Z,67.36
2024-03-28T08:39:28.671Z,65.10
2024-03-28T08:40:28.716Z,62.81
2024-03-28T08:41:28.763Z,62.34
2024-03-28T08:42:28.799Z,59.30
2024-03-28T08:43:28.817Z,60.94
2024-03-28T08:44:28.887Z,61.10
2024-03-28T08:45:28.909Z,64.04
2024-03-28T08:46:28.935Z,60.38
2024-03-28T08:47:29.043Z,60.45
2024-03-28T08:48:28.969Z,60.49
2024-03-28T08:49:28.990Z,60.79
2024-03-28T08:50:28.996Z,61.20
2024-03-28T08:51:28.961Z,61.71
2024-03-28T08:52:28.993Z,63.02
2024-03-28T08:53:28.958Z,61.23
2024-03-28T08:54:28.956Z,61.58
2024-03-28T08:55:28.968Z,62.28
2024-03-28T08:56:30.678Z,60.28
2024-03-28T08:57:29.249Z,60.64
2024-03-28T08:58:29.228Z,60.18
2024-03-28T08:59:29.116Z,62.42
2024-03-28T09:00:29.111Z,62.25
2024-03-28T09:01:28.948Z,62.10
2024-03-28T09:02:28.951Z,62.12
2024-03-28T09:03:28.909Z,62.26
2024-03-28T09:04:28.902Z,63.91
2024-03-28T09:05:28.892Z,65.34
2024-03-28T09:06:28.906Z,67.16
2024-03-28T09:07:28.918Z,67.02
2024-03-28T09:08:28.891Z,67.36
2024-03-28T09:09:28.948Z,70.83
2024-03-28T09:10:28.891Z,69.02
2024-03-28T09:11:28.892Z,69.51
2024-03-28T09:12:28.902Z,67.30
2024-03-28T09:13:28.929Z,69.43
2024-03-28T09:14:28.909Z,68.34
2024-03-28T09:15:28.978Z,68.52
2024-03-28T09:16:28.994Z,71.89
2024-03-28T09:17:29.029Z,70.96
2024-03-28T09:18:29.098Z,71.41
2024-03-28T09:19:29.158Z,69.86
2024-03-28T09:20:29.115Z,72.04
2024-03-28T09:21:29.227Z,70.91
2024-03-28T09:22:29.201Z,68.50
2024-03-28T09:23:29.280Z,67.01
2024-03-28T09:24:29.299Z,65.40
2024-03-28T09:25:29.311Z,65.05
2024-03-28T09:26:29.333Z,65.31
2024-03-28T09:27:29.386Z,66.74
2024-03-28T09:28:29.430Z,65.31
2024-03-28T09:29:29.447Z,65.08
2024-03-28T09:30:29.506Z,63.74
2024-03-28T09:31:29.525Z,63.48
2024-03-28T09:32:30.187Z,64.82
2024-03-28T09:33:29.630Z,66.88
2024-03-28T09:34:29.621Z,64.07
2024-03-28T09:35:29.632Z,64.10
2024-03-28T09:36:29.698Z,64.19
2024-03-28T09:37:29.603Z,64.35
2024-03-28T09:38:29.599Z,64.76
2024-03-28T09:39:29.575Z,65.66
2024-03-28T09:40:29.678Z,68.55
2024-03-28T09:41:29.604Z,66.18
2024-03-28T09:42:29.589Z,65.78
2024-03-28T09:43:29.628Z,66.08
2024-03-28T09:44:29.586Z,68.38
2024-03-28T09:45:29.595Z,68.71
2024-03-28T09:46:29.666Z,66.85
2024-03-28T09:47:29.634Z,70.73
2024-03-28T09:48:29.595Z,70.05
2024-03-28T09:49:29.653Z,70.83
2024-03-28T09:50:29.624Z,70.80
2024-03-28T09:51:29.697Z,69.92
2024-03-28T09:52:29.742Z,71.88
2024-03-28T09:53:29.765Z,69.87
2024-03-28T09:54:29.768Z,70.75
2024-03-28T09:55:29.908Z,71.01
2024-03-28T09:56:29.827Z,72.74
2024-03-28T09:57:29.875Z,74.22
2024-03-28T09:58:29.908Z,76.00
2024-03-28T09:59:29.932Z,76.98
2024-03-28T10:00:30.010Z,74.66
2024-03-28T10:01:30.013Z,75.55
2024-03-28T10:02:30.077Z,73.01
2024-03-28T10:03:30.081Z,73.93
2024-03-28T10:04:30.091Z,75.47
2024-03-28T10:05:30.112Z,74.75
2024-03-28T10:06:30.133Z,75.24
2024-03-28T10:07:30.168Z,74.34
2024-03-28T10:08:30.218Z,75.83
2024-03-28T10:09:30.220Z,75.03
2024-03-28T10:10:30.262Z,75.43
2024-03-28T10:11:30.273Z,77.19
2024-03-28T10:12:30.319Z,75.28
2024-03-28T10:13:30.314Z,75.93
2024-03-28T10:14:30.406Z,75.90
2024-03-28T10:15:30.553Z,78.58
2024-03-28T10:16:30.538Z,78.33
2024-03-28T10:17:30.605Z,78.79
2024-03-28T10:18:30.543Z,79.17
2024-03-28T10:19:30.554Z,78.46
2024-03-28T10:20:30.547Z,79.23
2024-03-28T10:21:30.547Z,79.54
2024-03-28T10:22:30.580Z,80.15
2024-03-28T10:23:30.561Z,81.17
2024-03-28T10:24:30.555Z,80.93
2024-03-28T10:25:30.596Z,77.35
2024-03-28T10:26:30.563Z,78.85
2024-03-28T10:27:30.564Z,80.11
2024-03-28T10:28:30.578Z,78.98
2024-03-28T10:29:30.560Z,78.05
2024-03-28T10:30:30.572Z,79.85
2024-03-28T10:31:30.550Z,76.45
2024-03-28T10:32:30.549Z,75.28
2024-03-28T10:33:30.591Z,74.42
2024-03-28T10:34:30.574Z,73.44
2024-03-28T10:35:30.548Z,74.87
2024-03-28T10:36:30.551Z,74.90
2024-03-28T10:37:40.464Z,74.91
2024-03-28T10:38:31.576Z,74.99
2024-03-28T10:39:30.548Z,73.92
2024-03-28T10:40:30.565Z,75.02
2024-03-28T10:41:30.563Z,75.04
2024-03-28T10:42:30.553Z,73.74
2024-03-28T10:43:30.568Z,72.87
2024-03-28T10:44:30.552Z,74.44
2024-03-28T10:45:30.565Z,73.20
2024-03-28T10:46:30.558Z,73.08
2024-03-28T10:47:30.557Z,70.04
2024-03-28T10:48:30.551Z,66.90
2024-03-28T10:49:30.535Z,70.10
2024-03-28T10:50:30.543Z,69.71
2024-03-28T10:51:30.534Z,67.46
2024-03-28T10:52:30.536Z,66.46
2024-03-28T10:53:30.559Z,67.20
2024-03-28T10:54:30.535Z,64.43
2024-03-28T10:55:32.756Z,67.40
2024-03-28T10:56:30.527Z,66.35
2024-03-28T10:57:30.516Z,64.89
2024-03-28T10:58:30.524Z,66.66
2024-03-28T10:59:30.508Z,65.29
2024-03-28T11:00:30.547Z,65.00
2024-03-28T11:01:32.850Z,68.15
2024-03-28T11:02:30.654Z,64.67
2024-03-28T11:03:30.762Z,66.72
2024-03-28T11:04:30.864Z,68.01
2024-03-28T11:05:30.950Z,69.95
2024-03-28T11:06:30.940Z,69.82
2024-03-28T11:07:30.957Z,69.23
2024-03-28T11:08:30.956Z,70.90
2024-03-28T11:09:30.958Z,70.69
2024-03-28T11:10:30.974Z,72.73
2024-03-28T11:11:31.072Z,67.43
2024-03-28T11:12:31.071Z,69.84
2024-03-28T11:13:31.098Z,68.68
2024-03-28T11:14:31.073Z,67.94
2024-03-28T11:15:31.072Z,68.04
2024-03-28T11:16:31.061Z,67.39
2024-03-28T11:17:31.060Z,65.38
2024-03-28T11:18:31.066Z,68.76
2024-03-28T11:19:33.541Z,66.49
2024-03-28T11:20:31.039Z,67.42
2024-03-28T11:21:31.055Z,65.42
2024-03-28T11:22:31.038Z,65.54
2024-03-28T11:23:31.049Z,65.47
2024-03-28T11:24:31.045Z,65.72
2024-03-28T11:25:31.065Z,65.06
2024-03-28T11:26:31.027Z,66.00
2024-03-28T11:27:31.041Z,66.43
2024-03-28T11:28:31.019Z,66.54
2024-03-28T11:29:31.005Z,68.39
2024-03-28T11:30:30.993Z,69.11
2024-03-28T11:31:30.999Z,68.76
2024-03-28T11:32:30.983Z,67.99
2024-03-28T11:33:30.963Z,68.74
2024-03-28T11:34:30.968Z,70.23
2024-03-28T11:35:30.955Z,69.56
2024-03-28T11:36:30.950Z,68.41
2024-03-28T11:37:30.970Z,67.32
2024-03-28T11:38:30.950Z,67.32
2024-03-28T11:39:30.932Z,67.72
2024-03-28T11:40:30.945Z,67.70
2024-03-28T11:41:30.968Z,67.56
2024-03-28T11:42:35.941Z,67.70
2024-03-28T11:43:31.927Z,67.71
2024-03-28T11:44:30.924Z,67.71
2024-03-28T11:45:30.922Z,66.05
2024-03-28T11:46:30.932Z,65.53
2024-03-28T11:47:33.115Z,63.12
2024-03-28T11:48:30.929Z,64.92
2024-03-28T11:49:30.915Z,63.07
2024-03-28T11:50:31.642Z,61.05
2024-03-28T11:51:30.945Z,61.78
2024-03-28T11:52:30.906Z,61.14
2024-03-28T11:53:30.900Z,58.21
2024-03-28T11:54:30.897Z,56.64
2024-03-28T11:55:30.893Z,57.61
2024-03-28T11:56:32.339Z,58.30
2024-03-28T11:57:30.890Z,55.70
2024-03-28T11:58:30.891Z,53.25
2024-03-28T11:59:30.900Z,56.17
2024-03-28T12:00:30.895Z,57.87
2024-03-28T12:01:30.906Z,57.57
2024-03-28T12:02:30.883Z,58.08
2024-03-28T12:03:30.917Z,59.38
2024-03-28T12:04:30.882Z,59.98
2024-03-28T12:05:30.878Z,58.12
2024-03-28T12:06:30.859Z,63.48
2024-03-28T12:07:30.852Z,63.03
2024-03-28T12:08:35.146Z,63.99
2024-03-28T12:09:31.878Z,64.00
2024-03-28T12:10:30.894Z,61.82
2024-03-28T12:11:30.864Z,62.99
2024-03-28T12:12:30.863Z,61.49
2024-03-28T12:13:30.838Z,60.01
2024-03-28T12:14:30.833Z,63.49
2024-03-28T12:15:30.827Z,61.08
2024-03-28T12:16:30.827Z,61.83
2024-03-28T12:17:30.806Z,58.01
2024-03-28T12:18:30.825Z,60.25
2024-03-28T12:19:30.800Z,58.07
2024-03-28T12:20:30.821Z,56.59
2024-03-28T12:21:30.795Z,55.92
2024-03-28T12:22:30.802Z,54.93
2024-03-28T12:23:30.784Z,56.34
2024-03-28T12:24:30.785Z,50.00
2024-03-28T12:25:30.780Z,50.93
2024-03-28T12:26:32.766Z,52.69
2024-03-28T12:27:30.792Z,50.73
2024-03-28T12:28:30.762Z,51.67
2024-03-28T12:29:30.751Z,52.05
2024-03-28T12:30:30.750Z,52.50
2024-03-28T12:31:30.759Z,51.89
2024-03-28T12:32:30.735Z,50.68
2024-03-28T12:33:30.751Z,50.76
2024-03-28T12:34:30.724Z,51.03
2024-03-28T12:35:30.744Z,48.59
2024-03-28T12:36:33.562Z,50.15
2024-03-28T12:37:30.732Z,48.84
2024-03-28T12:38:30.707Z,50.23
2024-03-28T12:39:30.727Z,52.84
2024-03-28T12:40:30.737Z,55.18
2024-03-28T12:41:30.700Z,55.34
2024-03-28T12:42:30.710Z,54.65
2024-03-28T12:43:30.711Z,57.24
2024-03-28T12:44:30.696Z,56.44
2024-03-28T12:45:30.676Z,58.63
2024-03-28T12:46:30.715Z,59.42
2024-03-28T12:47:30.719Z,58.81
2024-03-28T12:48:30.682Z,59.46
2024-03-28T12:49:30.675Z,63.29
2024-03-28T12:50:30.659Z,62.98
2024-03-28T12:51:30.655Z,63.64
2024-03-28T12:52:30.647Z,64.66